Time;durP1;ratioP1;P1;durP2;ratioP2;P2;SDS_P1;SDS_P2;PMS_P1;PMS_P2;Temp;Humidity;BMP_temperature;BMP_pressure;BME280_temperature;BME280_humidity;BME280_pressure;Samples;Min_cycle;Max_cycle;Signal;HPM_P1;HPM_P2
2021/04/22 00:00:52;;;;;;;14.90;6.13;;;16.50;90.00;;;;;;5049813;28;20198;-74
2021/04/22 00:03:20;;;;;;;14.33;7.90;;;16.60;89.70;;;;;;5051026;28;20262;-74
2021/04/22 00:05:47;;;;;;;16.63;9.20;;;16.60;89.60;;;;;;5048321;28;20184;-74
2021/04/22 00:08:14;;;;;;;18.27;8.47;;;16.60;90.30;;;;;;5051169;28;20179;-75
2021/04/22 00:10:51;;;;;;;20.50;10.67;;;16.80;90.60;;;;;;5050300;28;20207;-72
2021/04/22 00:13:21;;;;;;;20.53;11.07;;;17.00;90.40;;;;;;5052099;28;20672;-72
2021/04/22 00:15:50;;;;;;;22.53;12.07;;;17.00;90.20;;;;;;5049831;28;20187;-71
2021/04/22 00:18:18;;;;;;;22.33;11.67;;;16.80;90.20;;;;;;5048395;28;20672;-70
2021/04/22 00:20:46;;;;;;;26.80;12.53;;;16.90;90.30;;;;;;5052390;28;20199;-70
2021/04/22 00:23:16;;;;;;;21.93;12.17;;;17.00;90.00;;;;;;5049700;28;20183;-72
2021/04/22 00:25:44;;;;;;;25.07;11.63;;;17.10;89.80;;;;;;5052510;28;20661;-73
2021/04/22 00:28:14;;;;;;;20.07;11.50;;;17.20;90.20;;;;;;5050663;28;20183;-71
2021/04/22 00:30:46;;;;;;;18.97;12.07;;;17.30;90.10;;;;;;4968292;28;2366597;-71
2021/04/22 00:33:21;;;;;;;22.20;13.17;;;17.50;90.30;;;;;;5055299;28;20233;-75
2021/04/22 00:35:49;;;;;;;27.47;12.97;;;17.40;89.30;;;;;;5053533;28;20213;-72
2021/04/22 00:38:17;;;;;;;26.50;13.53;;;17.50;89.10;;;;;;5052037;28;20179;-69
2021/04/22 00:40:47;;;;;;;26.50;14.63;;;17.60;88.70;;;;;;5054110;28;20227;-71
2021/04/22 00:43:18;;;;;;;22.57;12.63;;;17.70;88.40;;;;;;5054727;28;20520;-74
2021/04/22 00:45:47;;;;;;;22.73;12.40;;;17.90;87.50;;;;;;5051502;28;20208;-72
2021/04/22 00:48:17;;;;;;;17.50;11.00;;;17.90;86.80;;;;;;5053831;28;20520;-70
2021/04/22 00:50:45;;;;;;;21.73;13.37;;;17.90;85.80;;;;;;5053828;28;20245;-75
2021/04/22 00:53:13;;;;;;;21.43;14.47;;;17.90;85.30;;;;;;5050746;28;20183;-69
2021/04/22 00:55:41;;;;;;;25.17;14.17;;;17.90;85.70;;;;;;5047681;28;20191;-75
2021/04/22 00:58:09;;;;;;;22.63;15.47;;;17.90;85.70;;;;;;5052446;28;20188;-70
2021/04/22 01:01:03;;;;;;;24.40;15.37;;;18.00;85.40;;;;;;5047675;28;20235;-71
2021/04/22 01:03:31;;;;;;;28.10;16.20;;;18.30;85.10;;;;;;5051438;28;20196;-72
2021/04/22 01:06:02;;;;;;;25.73;14.73;;;18.40;83.40;;;;;;5053375;28;20183;-74
2021/04/22 01:08:29;;;;;;;22.63;14.00;;;18.40;82.10;;;;;;5051609;28;20727;-70
2021/04/22 01:10:57;;;;;;;28.40;17.77;;;18.50;80.50;;;;;;5052731;28;20176;-73
2021/04/22 01:13:24;;;;;;;27.80;16.13;;;18.50;81.80;;;;;;5051498;28;20275;-70
2021/04/22 01:15:52;;;;;;;30.23;17.00;;;18.70;81.00;;;;;;5051635;28;20183;-76
2021/04/22 01:18:19;;;;;;;27.93;16.77;;;18.70;81.00;;;;;;5066420;28;20187;-73
2021/04/22 01:20:49;;;;;;;25.50;16.57;;;18.70;80.10;;;;;;5053179;28;20203;-71
2021/04/22 01:23:17;;;;;;;24.13;12.93;;;19.00;79.60;;;;;;5052380;28;20602;-72
2021/04/22 01:25:47;;;;;;;19.33;11.43;;;19.20;78.10;;;;;;5048647;28;20237;-75
2021/04/22 01:28:16;;;;;;;19.33;10.00;;;19.10;78.10;;;;;;5051833;28;20184;-78
2021/04/22 01:30:50;;;;;;;14.53;9.37;;;19.10;76.90;;;;;;5052509;28;20625;-73
2021/04/22 01:33:23;;;;;;;18.00;10.83;;;19.30;77.30;;;;;;5050204;28;20208;-70
2021/04/22 01:35:53;;;;;;;17.23;8.80;;;19.50;75.50;;;;;;5050286;28;20241;-74
2021/04/22 01:38:21;;;;;;;10.77;7.10;;;19.50;75.40;;;;;;5053254;28;20588;-70
2021/04/22 01:40:49;;;;;;;13.40;7.27;;;19.30;75.40;;;;;;5045051;28;20195;-74
2021/04/22 01:43:17;;;;;;;11.90;7.90;;;19.50;76.10;;;;;;5050531;28;20186;-73
2021/04/22 01:45:44;;;;;;;12.17;7.13;;;19.30;73.80;;;;;;5051014;28;20287;-78
2021/04/22 01:48:12;;;;;;;13.37;7.37;;;19.40;74.70;;;;;;5052197;28;20184;-71
2021/04/22 01:50:40;;;;;;;14.13;7.07;;;19.50;74.10;;;;;;5050874;28;20178;-71
2021/04/22 01:53:08;;;;;;;11.90;6.40;;;19.80;73.30;;;;;;5043268;28;20259;-77
2021/04/22 01:55:38;;;;;;;12.93;6.50;;;19.90;73.40;;;;;;5063991;28;20172;-73
2021/04/22 01:58:08;;;;;;;13.10;7.20;;;20.00;72.20;;;;;;5047472;28;20177;-73
2021/04/22 02:00:38;;;;;;;14.40;6.97;;;20.10;71.50;;;;;;5032651;28;20223;-68
2021/04/22 02:03:06;;;;;;;13.30;6.93;;;19.80;72.80;;;;;;5048686;28;20220;-74
2021/04/22 02:05:35;;;;;;;12.33;6.60;;;19.80;72.60;;;;;;5068098;28;20570;-75
2021/04/22 02:08:04;;;;;;;10.93;5.67;;;19.90;71.10;;;;;;5046959;28;20255;-75
2021/04/22 02:10:33;;;;;;;7.83;5.57;;;19.80;70.50;;;;;;5050635;28;20237;-75
2021/04/22 02:13:00;;;;;;;21.73;5.73;;;20.10;69.50;;;;;;5051993;28;20180;-71
2021/04/22 02:15:29;;;;;;;8.90;4.93;;;20.10;70.20;;;;;;5052017;28;20216;-73
2021/04/22 02:18:00;;;;;;;11.30;6.07;;;20.10;70.80;;;;;;5050899;28;20191;-79
2021/04/22 02:20:28;;;;;;;11.40;6.63;;;20.50;69.00;;;;;;5052014;28;20215;-73
2021/04/22 02:22:56;;;;;;;10.00;5.03;;;20.80;68.90;;;;;;5051869;28;20638;-70
2021/04/22 02:25:26;;;;;;;13.60;7.93;;;20.90;67.00;;;;;;5051857;28;20239;-71
2021/04/22 02:27:54;;;;;;;18.73;9.07;;;21.30;66.70;;;;;;5052007;28;20211;-69
2021/04/22 02:30:42;;;;;;;19.90;9.33;;;21.50;64.00;;;;;;5051326;28;20227;-75
2021/04/22 02:33:12;;;;;;;14.97;8.47;;;21.30;63.40;;;;;;5051555;28;20306;-71
2021/04/22 02:35:42;;;;;;;10.47;5.10;;;21.40;63.30;;;;;;5051128;28;20690;-73
2021/04/22 02:38:11;;;;;;;7.23;5.07;;;21.40;60.60;;;;;;5051769;28;20522;-73
2021/04/22 02:40:40;;;;;;;14.67;7.03;;;21.30;60.30;;;;;;5051163;28;20240;-74
2021/04/22 02:43:11;;;;;;;8.43;3.03;;;21.60;61.70;;;;;;5051583;28;20641;-75
2021/04/22 02:45:42;;;;;;;7.93;2.67;;;21.70;59.90;;;;;;5044012;28;20218;-72
2021/04/22 02:48:10;;;;;;;11.40;3.53;;;22.00;59.60;;;;;;5047534;28;20575;-73
2021/04/22 02:50:40;;;;;;;6.43;3.53;;;22.00;59.50;;;;;;5045400;28;20287;-73
2021/04/22 02:53:08;;;;;;;7.13;3.40;;;22.10;59.10;;;;;;5050286;28;20180;-72
2021/04/22 02:55:36;;;;;;;10.07;3.40;;;22.10;59.20;;;;;;5047251;28;20580;-75
2021/04/22 02:58:04;;;;;;;11.17;3.30;;;21.90;59.20;;;;;;5045769;28;20345;-74
2021/04/22 03:00:32;;;;;;;10.97;2.70;;;21.80;58.90;;;;;;5050602;28;20581;-70
2021/04/22 03:03:00;;;;;;;5.97;2.00;;;22.30;58.60;;;;;;5050547;28;20262;-78
2021/04/22 03:05:27;;;;;;;3.40;1.40;;;22.70;57.40;;;;;;5050472;28;20532;-75
2021/04/22 03:07:55;;;;;;;9.90;3.30;;;23.10;57.50;;;;;;5050643;28;20173;-73
2021/04/22 03:10:25;;;;;;;4.20;2.00;;;23.10;55.80;;;;;;5050638;28;20188;-73
2021/04/22 03:12:53;;;;;;;4.27;1.67;;;23.20;56.50;;;;;;5051118;28;20690;-76
2021/04/22 03:15:22;;;;;;;5.33;1.50;;;23.10;55.30;;;;;;5050149;28;20176;-71
2021/04/22 03:17:50;;;;;;;11.00;4.43;;;23.20;56.00;;;;;;5043600;28;20199;-72
2021/04/22 03:20:19;;;;;;;10.17;3.50;;;23.00;55.40;;;;;;5049208;28;20215;-68
2021/04/22 03:22:47;;;;;;;8.77;4.10;;;22.80;55.60;;;;;;5049030;28;20190;-72
2021/04/22 03:25:16;;;;;;;6.87;3.30;;;22.60;56.00;;;;;;5054391;28;20183;-71
2021/04/22 03:27:44;;;;;;;6.20;2.63;;;22.80;56.40;;;;;;5053786;28;20272;-71
2021/04/22 03:30:14;;;;;;;7.63;2.33;;;22.80;55.90;;;;;;5053580;28;20241;-73
2021/04/22 03:32:42;;;;;;;8.57;2.50;;;22.20;56.70;;;;;;5050924;28;20206;-69
2021/04/22 03:35:13;;;;;;;7.13;2.17;;;22.00;57.30;;;;;;5053637;28;20184;-70
2021/04/22 03:37:42;;;;;;;4.80;2.33;;;22.00;58.40;;;;;;5052902;28;20923;-70
2021/04/22 03:40:12;;;;;;;3.70;1.87;;;22.50;57.40;;;;;;5051842;28;20298;-70
2021/04/22 03:42:40;;;;;;;3.27;1.17;;;22.30;57.60;;;;;;5054866;28;20175;-71
2021/04/22 03:45:10;;;;;;;6.20;1.70;;;22.20;58.50;;;;;;5054485;28;20196;-72
2021/04/22 03:47:37;;;;;;;3.37;1.77;;;21.90;58.50;;;;;;5053596;28;20211;-72
2021/04/22 03:50:07;;;;;;;4.57;1.60;;;22.00;59.20;;;;;;5054709;28;20583;-77
2021/04/22 03:52:34;;;;;;;4.77;1.80;;;22.20;58.80;;;;;;5053466;28;20184;-75
2021/04/22 03:55:02;;;;;;;5.03;1.80;;;21.90;59.60;;;;;;5053518;28;20485;-75
2021/04/22 03:57:29;;;;;;;3.27;1.70;;;22.10;60.10;;;;;;5054225;28;20645;-70
2021/04/22 03:59:57;;;;;;;4.03;1.87;;;22.10;59.70;;;;;;5053242;28;20687;-72
2021/04/22 04:02:24;;;;;;;6.70;2.57;;;22.20;60.70;;;;;;5052387;28;20267;-75
2021/04/22 04:04:51;;;;;;;4.50;2.07;;;22.60;58.20;;;;;;5044221;28;20233;-73
2021/04/22 04:07:19;;;;;;;2.80;1.97;;;22.80;58.20;;;;;;5054330;28;20176;-73
2021/04/22 04:09:49;;;;;;;3.70;1.90;;;22.80;58.00;;;;;;5054525;28;20187;-76
2021/04/22 04:12:16;;;;;;;5.20;2.00;;;23.50;57.30;;;;;;5054325;28;20176;-72
2021/04/22 04:14:44;;;;;;;3.77;1.77;;;23.60;56.30;;;;;;5053409;28;20184;-72
2021/04/22 04:17:11;;;;;;;5.20;1.77;;;23.40;56.10;;;;;;5054117;28;20246;-73
2021/04/22 04:19:39;;;;;;;7.87;1.70;;;23.30;56.10;;;;;;5053943;28;20302;-73
2021/04/22 04:22:06;;;;;;;3.50;1.40;;;23.70;56.40;;;;;;5053608;28;20664;-69
2021/04/22 04:24:33;;;;;;;6.80;1.70;;;23.70;56.10;;;;;;5056261;28;20297;-69
2021/04/22 04:27:01;;;;;;;4.03;1.40;;;24.10;55.40;;;;;;5050029;28;20180;-70
2021/04/22 04:29:28;;;;;;;6.90;1.67;;;23.50;55.00;;;;;;5056068;28;20199;-71
2021/04/22 04:31:55;;;;;;;3.80;1.37;;;22.80;56.20;;;;;;5051509;28;20725;-69
2021/04/22 04:34:23;;;;;;;5.20;2.20;;;23.00;56.50;;;;;;5050092;28;20176;-75
2021/04/22 04:36:50;;;;;;;2.93;1.90;;;23.40;56.00;;;;;;5052621;28;20176;-73
2021/04/22 04:39:17;;;;;;;3.83;2.40;;;22.90;56.20;;;;;;5053287;28;20288;-72
2021/04/22 04:41:45;;;;;;;11.20;2.30;;;23.10;56.30;;;;;;5053075;28;22298;-73
2021/04/22 04:44:13;;;;;;;4.00;2.17;;;24.20;56.10;;;;;;5053159;28;20172;-76
2021/04/22 04:46:41;;;;;;;2.90;1.33;;;24.90;54.90;;;;;;5053321;28;20187;-72
2021/04/22 04:49:09;;;;;;;4.20;1.83;;;24.50;54.50;;;;;;5049258;28;20235;-75
2021/04/22 04:51:36;;;;;;;6.17;0.90;;;24.00;54.90;;;;;;5051352;28;20199;-73
2021/04/22 04:54:05;;;;;;;3.10;1.13;;;23.70;54.80;;;;;;5052726;28;20191;-70
2021/04/22 04:56:33;;;;;;;3.70;1.50;;;23.80;55.20;;;;;;5052796;28;20199;-71
2021/04/22 04:59:00;;;;;;;3.47;1.30;;;23.80;54.70;;;;;;5051359;28;20238;-73
2021/04/22 05:01:30;;;;;;;3.03;1.10;;;23.80;54.30;;;;;;5051501;28;20225;-68
2021/04/22 05:03:58;;;;;;;6.87;1.20;;;23.90;54.20;;;;;;5055289;28;20215;-69
2021/04/22 05:06:25;;;;;;;4.87;1.20;;;24.40;54.10;;;;;;5051751;28;20176;-72
2021/04/22 05:08:53;;;;;;;6.07;0.97;;;24.00;54.00;;;;;;5051121;28;20223;-74
2021/04/22 05:11:20;;;;;;;5.67;1.37;;;23.90;53.90;;;;;;5052962;28;20237;-69
2021/04/22 05:13:48;;;;;;;4.57;1.00;;;24.60;54.30;;;;;;5052847;28;20546;-72
2021/04/22 05:16:15;;;;;;;4.07;1.00;;;24.40;53.60;;;;;;5052057;28;20199;-71
2021/04/22 05:18:42;;;;;;;3.67;1.03;;;23.70;55.40;;;;;;5052243;28;20184;-72
2021/04/22 05:21:10;;;;;;;2.77;1.30;;;23.50;55.10;;;;;;5053778;28;20184;-77
2021/04/22 05:23:37;;;;;;;1.47;0.77;;;23.20;55.60;;;;;;5052931;28;20551;-72
2021/04/22 05:26:05;;;;;;;4.23;0.83;;;22.70;56.50;;;;;;5052831;28;20548;-70
2021/04/22 05:28:32;;;;;;;3.30;1.00;;;22.80;56.60;;;;;;5052606;28;20214;-69
2021/04/22 05:31:00;;;;;;;6.40;1.00;;;23.40;56.00;;;;;;5052712;28;20232;-73
2021/04/22 05:33:27;;;;;;;9.07;1.17;;;23.40;55.30;;;;;;5052606;28;20183;-73
2021/04/22 05:35:54;;;;;;;6.93;1.10;;;23.30;55.60;;;;;;5052544;28;20189;-74
2021/04/22 05:38:22;;;;;;;7.13;1.00;;;22.90;55.40;;;;;;5050561;28;20179;-70
2021/04/22 05:40:49;;;;;;;3.77;0.97;;;22.60;56.00;;;;;;5052263;28;20223;-73
2021/04/22 05:43:17;;;;;;;3.37;1.00;;;23.10;55.40;;;;;;5049212;28;20249;-73
2021/04/22 05:45:44;;;;;;;2.17;1.00;;;23.50;54.90;;;;;;5050992;28;20187;-70
2021/04/22 05:48:12;;;;;;;3.63;1.17;;;23.30;55.80;;;;;;5052003;28;20542;-75
2021/04/22 05:50:40;;;;;;;5.93;1.03;;;23.40;55.20;;;;;;5049050;28;20528;-71
2021/04/22 05:53:09;;;;;;;1.43;0.80;;;23.00;55.20;;;;;;5051538;28;20546;-72
2021/04/22 05:55:36;;;;;;;4.60;0.90;;;22.90;55.60;;;;;;5051593;28;20203;-72
2021/04/22 05:58:03;;;;;;;5.10;1.00;;;22.60;55.50;;;;;;5050870;28;20195;-71
2021/04/22 06:00:31;;;;;;;6.03;0.90;;;22.40;55.90;;;;;;5051395;28;20215;-72
2021/04/22 06:02:59;;;;;;;7.73;0.90;;;22.50;55.90;;;;;;5051326;28;20267;-73
2021/04/22 06:05:27;;;;;;;2.43;0.80;;;22.20;56.00;;;;;;5051021;28;20237;-73
2021/04/22 06:07:56;;;;;;;4.30;0.80;;;22.10;56.20;;;;;;5052131;28;20274;-75
2021/04/22 06:10:25;;;;;;;1.63;0.93;;;21.60;56.20;;;;;;5050236;28;20187;-71
2021/04/22 06:12:52;;;;;;;4.13;0.93;;;21.20;57.20;;;;;;5041734;28;20609;-69
2021/04/22 06:15:21;;;;;;;5.20;1.03;;;21.30;56.70;;;;;;5047632;28;20211;-71
2021/04/22 06:17:49;;;;;;;3.43;0.90;;;21.20;57.10;;;;;;5050481;28;20180;-70
2021/04/22 06:20:19;;;;;;;5.90;1.30;;;21.00;57.80;;;;;;5049036;28;20216;-73
2021/04/22 06:22:48;;;;;;;5.13;1.03;;;20.90;58.50;;;;;;5052384;28;20180;-74
2021/04/22 06:25:20;;;;;;;2.27;0.83;;;20.20;58.50;;;;;;5051620;28;20226;-72
2021/04/22 06:27:49;;;;;;;3.70;1.17;;;19.70;59.30;;;;;;5051722;28;20219;-75
2021/04/22 06:30:17;;;;;;;4.10;1.30;;;19.50;59.50;;;;;;5050831;28;20235;-69
2021/04/22 06:32:45;;;;;;;5.60;0.87;;;19.40;59.50;;;;;;5051476;28;20176;-71
2021/04/22 06:35:14;;;;;;;8.27;1.17;;;19.30;59.50;;;;;;5050161;28;20210;-72
2021/04/22 06:37:42;;;;;;;3.43;1.00;;;19.10;59.80;;;;;;5051219;28;20194;-73
2021/04/22 06:40:15;;;;;;;3.53;0.80;;;18.90;61.00;;;;;;5051489;28;20216;-70
2021/04/22 06:42:44;;;;;;;2.60;1.00;;;18.80;59.80;;;;;;5048759;28;20198;-72
2021/04/22 06:45:13;;;;;;;6.50;1.10;;;18.70;60.30;;;;;;5050123;28;20187;-72
2021/04/22 06:47:41;;;;;;;2.67;0.90;;;18.60;60.60;;;;;;5049633;28;20644;-72
2021/04/22 06:50:12;;;;;;;4.83;0.93;;;18.50;60.90;;;;;;5047333;28;20184;-71
2021/04/22 06:52:40;;;;;;;4.10;0.90;;;18.70;61.30;;;;;;5050846;28;20180;-69
2021/04/22 06:55:14;;;;;;;5.80;1.13;;;18.90;61.10;;;;;;5050900;28;20279;-70
2021/04/22 06:57:41;;;;;;;7.43;0.90;;;18.70;61.00;;;;;;5051650;28;20184;-74
2021/04/22 07:00:15;;;;;;;3.03;0.80;;;18.40;61.50;;;;;;5052349;28;20681;-72
2021/04/22 07:02:43;;;;;;;3.83;0.97;;;18.30;62.10;;;;;;5054500;28;20559;-72
2021/04/22 07:05:11;;;;;;;3.90;0.83;;;18.10;62.00;;;;;;5070364;28;20205;-73
2021/04/22 07:07:38;;;;;;;4.13;0.73;;;18.00;62.30;;;;;;5052211;28;20267;-71
2021/04/22 07:10:07;;;;;;;1.83;0.90;;;18.00;61.70;;;;;;5054205;28;20207;-70
2021/04/22 07:12:35;;;;;;;3.90;1.13;;;17.90;62.10;;;;;;5051701;28;20184;-75
2021/04/22 07:15:04;;;;;;;6.87;1.53;;;17.90;62.40;;;;;;5053298;28;20180;-73
2021/04/22 07:17:31;;;;;;;2.90;0.87;;;17.80;62.30;;;;;;5054842;28;20254;-70
2021/04/22 07:19:59;;;;;;;3.57;0.93;;;17.70;62.30;;;;;;5054822;28;20574;-71
2021/04/22 07:22:27;;;;;;;6.77;1.17;;;17.60;63.00;;;;;;5070042;28;20179;-73
2021/04/22 07:24:55;;;;;;;2.90;1.10;;;17.50;63.00;;;;;;5051190;28;20187;-72
2021/04/22 07:27:23;;;;;;;3.40;1.07;;;17.50;63.00;;;;;;5052411;28;20236;-71
2021/04/22 07:29:50;;;;;;;5.40;1.30;;;17.40;63.20;;;;;;5054303;28;20243;-72
2021/04/22 07:32:20;;;;;;;6.33;1.30;;;17.40;63.30;;;;;;5043861;28;20183;-75
2021/04/22 07:34:48;;;;;;;2.27;0.90;;;17.30;63.40;;;;;;5042919;28;20261;-76
2021/04/22 07:37:17;;;;;;;3.33;1.07;;;17.20;63.40;;;;;;5052885;28;20170;-75
2021/04/22 07:39:45;;;;;;;4.97;1.20;;;17.20;63.70;;;;;;5043352;28;20215;-75
2021/04/22 07:42:13;;;;;;;5.27;1.27;;;17.10;63.70;;;;;;5047256;28;20180;-76
2021/04/22 07:44:41;;;;;;;5.30;1.07;;;17.10;64.20;;;;;;5054174;28;20184;-79
2021/04/22 07:47:09;;;;;;;5.47;1.10;;;17.00;64.30;;;;;;5051893;28;20586;-75
2021/04/22 07:49:37;;;;;;;5.67;1.40;;;17.00;64.40;;;;;;5052127;28;20538;-74
2021/04/22 07:52:04;;;;;;;4.77;1.10;;;16.90;64.30;;;;;;5054486;28;20642;-73
2021/04/22 07:54:32;;;;;;;4.70;1.20;;;16.90;64.60;;;;;;5054599;28;20255;-74
2021/04/22 07:56:59;;;;;;;6.13;1.20;;;16.80;64.60;;;;;;5054498;28;20186;-72
2021/04/22 07:59:27;;;;;;;11.57;1.30;;;16.80;64.70;;;;;;5054384;28;20206;-74
2021/04/22 08:01:54;;;;;;;3.50;1.07;;;16.70;64.60;;;;;;5054717;28;20176;-76
2021/04/22 08:04:21;;;;;;;2.90;1.10;;;16.60;64.60;;;;;;5050839;28;20179;-80
2021/04/22 08:06:50;;;;;;;5.73;1.47;;;16.60;64.80;;;;;;5053209;28;20172;-72
2021/04/22 08:09:18;;;;;;;6.50;1.60;;;16.60;64.80;;;;;;5053820;28;20183;-75
2021/04/22 08:11:45;;;;;;;1.10;0.90;;;16.50;65.00;;;;;;5053406;28;20182;-73
2021/04/22 08:14:12;;;;;;;3.40;1.43;;;16.50;65.20;;;;;;5053206;28;20638;-72
2021/04/22 08:16:40;;;;;;;7.00;1.30;;;16.40;65.20;;;;;;5054247;28;20184;-75
2021/04/22 08:19:07;;;;;;;4.97;1.40;;;16.40;65.50;;;;;;5054101;28;20579;-75
2021/04/22 08:21:35;;;;;;;4.20;1.20;;;16.40;65.60;;;;;;5054524;28;20190;-72
2021/04/22 08:24:02;;;;;;;2.63;1.10;;;16.40;65.80;;;;;;5054596;28;20191;-72
2021/04/22 08:26:30;;;;;;;2.50;1.30;;;16.40;65.90;;;;;;5053184;28;20215;-71
2021/04/22 08:28:58;;;;;;;4.10;1.03;;;16.30;66.10;;;;;;5054500;28;20233;-71
2021/04/22 08:31:28;;;;;;;2.50;1.07;;;16.30;66.20;;;;;;5054477;28;20290;-75
2021/04/22 08:34:00;;;;;;;4.63;1.17;;;16.30;66.10;;;;;;5054585;28;20179;-77
2021/04/22 08:36:27;;;;;;;2.13;1.13;;;16.30;66.20;;;;;;5054271;28;20311;-72
2021/04/22 08:38:55;;;;;;;4.70;1.43;;;16.30;66.40;;;;;;5054227;28;20187;-77
2021/04/22 08:41:22;;;;;;;4.27;1.40;;;16.20;66.50;;;;;;5053082;28;20223;-77
2021/04/22 08:43:50;;;;;;;9.93;1.77;;;16.20;66.70;;;;;;5054169;28;20184;-73
2021/04/22 08:46:17;;;;;;;5.37;1.40;;;16.20;66.90;;;;;;5053786;28;20222;-75
2021/04/22 08:48:47;;;;;;;5.60;1.80;;;16.10;67.10;;;;;;5052798;28;20191;-72
2021/04/22 08:51:14;;;;;;;11.43;2.33;;;16.10;67.20;;;;;;5054138;28;20214;-73
2021/04/22 08:53:45;;;;;;;3.87;1.37;;;16.10;67.30;;;;;;5054139;28;20195;-73
2021/04/22 08:56:14;;;;;;;6.87;1.40;;;16.00;67.40;;;;;;5052673;28;20193;-73
2021/04/22 08:58:43;;;;;;;3.73;1.07;;;15.90;67.60;;;;;;5053639;28;20622;-72
2021/04/22 09:01:16;;;;;;;2.80;1.23;;;15.90;67.70;;;;;;5052877;28;20237;-76
2021/04/22 09:03:46;;;;;;;5.57;1.37;;;15.90;68.00;;;;;;5053933;28;20190;-74
2021/04/22 09:06:14;;;;;;;7.27;1.20;;;15.90;68.60;;;;;;5053923;28;20192;-72
2021/04/22 09:08:45;;;;;;;2.17;1.37;;;15.90;67.80;;;;;;5054030;28;20178;-75
2021/04/22 09:11:17;;;;;;;4.03;1.40;;;15.80;68.00;;;;;;5053744;28;20172;-75
2021/04/22 09:13:45;;;;;;;3.23;0.90;;;15.80;67.90;;;;;;5067780;28;20547;-72
2021/04/22 09:16:18;;;;;;;2.50;1.00;;;15.80;68.10;;;;;;5052886;28;20195;-74
2021/04/22 09:18:52;;;;;;;4.50;1.20;;;15.80;68.40;;;;;;5051759;28;20176;-75
2021/04/22 09:21:22;;;;;;;2.17;1.30;;;15.70;68.40;;;;;;5052819;28;20279;-73
2021/04/22 09:24:02;;;;;;;3.07;1.60;;;15.70;68.60;;;;;;5053738;28;20214;-76
2021/04/22 09:26:50;;;;;;;3.57;1.30;;;15.70;68.90;;;;;;5052244;28;20180;-80
2021/04/22 09:29:34;;;;;;;4.30;1.20;;;15.60;69.00;;;;;;5053579;28;20182;-78
2021/04/22 09:32:16;;;;;;;7.00;1.30;;;15.60;69.10;;;;;;5053809;28;20196;-72
2021/04/22 09:34:57;;;;;;;2.80;1.53;;;15.60;69.00;;;;;;5052944;28;20218;-72
2021/04/22 09:37:45;;;;;;;2.77;1.20;;;15.60;69.20;;;;;;5053099;28;20174;-71
2021/04/22 09:40:19;;;;;;;1.83;1.63;;;15.50;69.40;;;;;;5052999;28;20219;-68
2021/04/22 09:42:47;;;;;;;3.60;1.50;;;15.50;69.80;;;;;;5052771;28;20218;-69
2021/04/22 09:45:18;;;;;;;3.20;1.30;;;15.40;69.80;;;;;;5054079;28;20234;-70
2021/04/22 09:47:46;;;;;;;5.43;1.30;;;15.40;70.00;;;;;;5053587;28;20577;-70
2021/04/22 09:50:17;;;;;;;4.00;1.40;;;15.40;70.30;;;;;;5054014;28;20173;-72
2021/04/22 09:52:53;;;;;;;3.90;1.50;;;15.30;70.20;;;;;;5053859;28;20182;-73
2021/04/22 09:55:24;;;;;;;4.73;1.70;;;15.30;70.30;;;;;;5053985;28;20529;-71
2021/04/22 09:57:51;;;;;;;3.93;1.77;;;15.30;70.60;;;;;;5053451;28;20186;-70
2021/04/22 10:00:28;;;;;;;4.63;1.57;;;15.20;70.90;;;;;;5053357;28;20268;-70
2021/04/22 10:02:58;;;;;;;4.90;1.40;;;15.20;70.80;;;;;;5053412;28;20176;-72
2021/04/22 10:05:34;;;;;;;2.13;1.30;;;15.10;70.90;;;;;;5045084;28;20219;-71
2021/04/22 10:08:05;;;;;;;9.33;1.30;;;15.10;71.10;;;;;;5033474;28;20184;-73
2021/04/22 10:10:32;;;;;;;3.00;1.40;;;15.00;71.40;;;;;;5045664;28;20184;-71
2021/04/22 10:13:05;;;;;;;3.00;1.40;;;15.00;71.50;;;;;;5052140;28;20191;-71
2021/04/22 10:15:32;;;;;;;3.67;1.37;;;15.00;71.80;;;;;;5052833;28;20172;-73
2021/04/22 10:18:03;;;;;;;3.07;1.27;;;14.90;71.90;;;;;;5053184;28;20172;-70
2021/04/22 10:20:35;;;;;;;3.30;1.30;;;14.90;71.90;;;;;;5052808;28;20291;-72
2021/04/22 10:23:03;;;;;;;4.40;1.30;;;14.90;71.90;;;;;;5053441;28;20526;-73
2021/04/22 10:25:33;;;;;;;3.67;1.37;;;14.90;72.20;;;;;;5052982;28;20245;-71
2021/04/22 10:28:08;;;;;;;3.40;1.47;;;14.80;72.20;;;;;;5068212;28;20706;-72
2021/04/22 10:30:37;;;;;;;3.67;1.73;;;14.80;72.30;;;;;;5052432;28;20559;-73
2021/04/22 10:33:06;;;;;;;3.00;1.50;;;14.70;72.90;;;;;;5056210;28;20258;-73
2021/04/22 10:35:37;;;;;;;2.37;1.50;;;14.70;72.90;;;;;;5057105;28;20184;-71
2021/04/22 10:38:06;;;;;;;4.07;1.60;;;14.70;72.90;;;;;;5057065;28;20187;-75
2021/04/22 10:40:47;;;;;;;2.00;1.27;;;14.60;73.10;;;;;;5056480;28;20213;-75
2021/04/22 10:43:23;;;;;;;2.93;1.70;;;14.60;73.30;;;;;;5056790;28;20175;-74
2021/04/22 10:45:52;;;;;;;7.23;1.70;;;14.60;73.90;;;;;;5056551;28;20179;-70
2021/04/22 10:48:19;;;;;;;1.90;1.37;;;14.50;74.00;;;;;;5056323;28;20579;-74
2021/04/22 10:50:50;;;;;;;1.57;1.20;;;14.50;73.80;;;;;;5056787;28;20173;-70
2021/04/22 10:53:20;;;;;;;5.57;1.97;;;14.50;74.50;;;;;;5056901;28;21519;-74
2021/04/22 10:55:50;;;;;;;5.20;1.70;;;14.40;74.50;;;;;;5060677;28;20255;-72
2021/04/22 10:58:29;;;;;;;6.30;1.90;;;14.40;74.90;;;;;;5059347;28;20358;-74
2021/04/22 11:00:56;;;;;;;8.57;1.80;;;14.40;75.20;;;;;;5059594;28;20258;-75
2021/04/22 11:03:31;;;;;;;8.90;1.97;;;14.30;75.20;;;;;;5059374;28;20180;-76
2021/04/22 11:06:01;;;;;;;5.00;1.70;;;14.30;75.40;;;;;;5059282;28;20535;-75
2021/04/22 11:08:34;;;;;;;3.90;1.60;;;14.30;75.50;;;;;;5057969;28;20198;-69
2021/04/22 11:11:02;;;;;;;4.67;1.67;;;14.30;75.80;;;;;;5056694;28;20179;-71
2021/04/22 11:13:32;;;;;;;5.17;1.63;;;14.20;76.00;;;;;;5053980;28;20263;-75
2021/04/22 11:16:05;;;;;;;8.97;2.10;;;14.10;76.10;;;;;;5056103;28;20278;-75
2021/04/22 11:18:40;;;;;;;7.10;1.90;;;14.10;76.20;;;;;;5054290;28;20214;-70
2021/04/22 11:21:21;;;;;;;5.47;2.03;;;14.00;76.30;;;;;;5054742;28;20261;-71
2021/04/22 11:23:49;;;;;;;5.43;1.93;;;14.00;76.30;;;;;;5054789;28;20184;-72
2021/04/22 11:26:39;;;;;;;4.57;2.20;;;14.00;76.70;;;;;;5054630;28;20191;-70
2021/04/22 11:29:19;;;;;;;5.40;1.70;;;13.90;76.60;;;;;;5053515;28;20671;-73
2021/04/22 11:31:55;;;;;;;6.43;2.47;;;13.90;76.90;;;;;;5052454;28;20748;-72
2021/04/22 11:34:34;;;;;;;3.73;1.70;;;13.90;76.80;;;;;;5075162;28;20175;-76
2021/04/22 11:37:13;;;;;;;2.87;1.67;;;13.90;77.00;;;;;;5065505;28;20650;-71
2021/04/22 11:39:41;;;;;;;4.17;1.73;;;13.90;77.20;;;;;;5064751;28;20788;-74
2021/04/22 11:42:08;;;;;;;8.50;2.00;;;13.90;77.50;;;;;;5062410;28;20179;-72
2021/04/22 11:44:38;;;;;;;2.83;1.60;;;13.90;77.30;;;;;;5069563;28;20630;-75
2021/04/22 11:47:23;;;;;;;7.67;2.07;;;13.90;77.20;;;;;;5066552;28;20692;-74
2021/04/22 11:50:20;;;;;;;10.13;1.70;;;13.80;77.60;;;;;;5052289;28;20175;-74
2021/04/22 11:52:55;;;;;;;13.03;2.27;;;13.80;77.90;;;;;;5053490;28;20536;-73
2021/04/22 11:55:26;;;;;;;5.87;2.23;;;13.80;77.60;;;;;;5054706;28;20660;-74
2021/04/22 11:58:15;;;;;;;4.67;1.70;;;13.70;78.20;;;;;;5054699;28;20180;-71
2021/04/22 12:00:52;;;;;;;8.33;1.80;;;13.70;78.20;;;;;;5054267;28;20207;-70
2021/04/22 12:03:31;;;;;;;6.60;2.47;;;13.70;78.40;;;;;;5041904;28;20175;-71
2021/04/22 12:06:07;;;;;;;5.40;1.70;;;13.70;78.80;;;;;;5052530;28;20241;-70
2021/04/22 12:08:46;;;;;;;5.47;1.87;;;13.70;78.90;;;;;;5054948;28;20176;-71
2021/04/22 12:11:26;;;;;;;6.03;2.20;;;13.70;79.00;;;;;;5040024;28;20218;-74
2021/04/22 12:13:55;;;;;;;8.27;2.23;;;13.70;79.20;;;;;;5054120;28;20780;-71
2021/04/22 12:16:23;;;;;;;3.90;2.00;;;13.60;79.30;;;;;;5053113;28;20186;-70
2021/04/22 12:18:51;;;;;;;2.70;1.80;;;13.60;79.60;;;;;;5054394;28;20622;-75
2021/04/22 12:21:23;;;;;;;8.87;2.37;;;13.50;79.80;;;;;;5054490;28;20630;-70
2021/04/22 12:23:54;;;;;;;3.23;1.60;;;13.50;80.10;;;;;;5053504;28;20646;-73
2021/04/22 12:26:30;;;;;;;7.07;1.90;;;13.50;80.80;;;;;;5054355;28;20662;-74
2021/04/22 12:29:01;;;;;;;11.07;2.83;;;13.50;80.70;;;;;;5054290;28;20183;-72
2021/04/22 12:31:35;;;;;;;4.33;1.87;;;13.40;81.40;;;;;;5052271;28;20243;-74
2021/04/22 12:34:10;;;;;;;8.63;2.30;;;13.40;81.00;;;;;;5054273;28;20214;-73
2021/04/22 12:36:41;;;;;;;6.37;2.60;;;13.30;81.00;;;;;;5053731;28;20191;-68
2021/04/22 12:39:09;;;;;;;9.07;2.57;;;13.30;81.00;;;;;;5053559;28;20203;-69
2021/04/22 12:41:36;;;;;;;8.13;2.60;;;13.20;81.40;;;;;;5053968;28;20295;-70
2021/04/22 12:44:04;;;;;;;13.07;2.77;;;13.20;81.40;;;;;;5054017;28;20259;-68
2021/04/22 12:46:35;;;;;;;4.80;2.20;;;13.10;81.30;;;;;;5053438;28;20180;-70
2021/04/22 12:49:02;;;;;;;6.80;2.80;;;13.20;81.70;;;;;;5052549;28;20271;-70
2021/04/22 12:51:34;;;;;;;11.13;3.03;;;13.10;81.60;;;;;;5053852;28;20687;-72
2021/04/22 12:54:02;;;;;;;6.00;2.30;;;13.20;81.30;;;;;;5053415;28;20180;-73
2021/04/22 12:56:33;;;;;;;8.73;2.83;;;13.10;81.60;;;;;;5052528;28;20187;-71